Pagrindinis puslapis
METAR-TAF:

METAR-TAF

Oro uostai :

Jelounaifas, Šiaurės Vakarai, Kanada

platuma: 62-28N, ilguma: 114-27W, Aukštis: 205 m

Dabartinis oras

Ataskaita buvo paskelbta 19 minutes, ne 03:00 UTC
Vėjas 9 kt iš Vakarų/Šiaurės Vakarų
Temperatūra -32°C
Drėgmė 74%
Slėgis 1022 hPa
Matomumas: 24.1 km
Giedras dangus

METAR: CYZF 170300Z 30009KT 15SM SKC M32/M35 A3018 RMK SLP259

Laikas: 20:19 (03:19 UTC)

Prognozė

Ataskaita buvo paskelbta 3 valandos ir 41 minutes, ne 23:38 UTC
Prognozė galioja nuo 17 metu 00 UTC su 17 metu 24 UTC
Vėjas 10 kt iš Šiaurės Vakarų
Matomumas: 10 km
Mažai debesys ne aukštis 24000 ft
Nuo 17 metu 0500 UTC
Vėjas 8 kt iš Šiaurės Vakarų
Matomumas: 10 km
Išsisklaidę debesys ne aukštis 10000 ft
Nuo 17 metu 1100 UTC
Vėjas 8 kt iš Šiaurės Vakarų
Matomumas: 10 km
Giedras dangus

TAF: CYZF 162338Z 1700/1724 31010KT P6SM FEW240 FM170500 31008KT P6SM SCT100 FM171100 31008KT P6SM SKC RMK NXT FCST BY 170600Z

Orai ataskaitas ir orų prognozės (METAR, TAF).

turimą stotys yra geltonos ir raudonos taškus žemėlapyje.

Perkelti pele per norėdami pamatyti stoties vardą.

Tada spustelėkite, norėdami matyti oro stebėjimo ir prognozės.

Norėdami pakeisti žemėlapį: spustelėkite ant žalios mygtukų su juodo kryžiaus žemyn,; žalią mygtuką su brūkšneliu, jei norite nutolinti; arba žalių rodyklių gretimoms žemėlapius.


METAR-TAF: